In Rescue
 
Open Full Screen Window  High Contrast Mode
Wind Gusting 15 knots
10
April 20, 2024 8:40 AM EDT
Weather Information
Wind Direction
  280 °
Wind Speed
  10 kt (12 mph)
Wind Gust
  15 kt (17 mph)
Altimeter
30.08 in
Visibility
10 SM
Temperature
04° C
39° F
Dewpoint
-05° C
23° F
Humidity
52%
Sky Condition
Overcast @ 6,500 ft
VFR

METAR KRNP 201240Z AUTO 28010G15KT 10SM OVC065 04/M05 A3008 RMK AO2 T00361050

FAA Disclaimer: The data displayed is for advisory purposes only and is not to be used for flight planning or operations.